Mapleville, Rhode Island
Current Conditions -  °F | °C
As of 12:15 PM on Sunday 21 Dec 2014 (Local Time) from KSFZ Reporting Station
Overcast Overcast  
Wind Chill: 23°   Ceiling: 800
Heat Index: 30°   Visibility: 2.5mi
Dew Point: 25°   Wind: 8mph
Humidity: 80%   Direction: 10°N
Pressure: 30.26"   Gusts: NA
Location:  41.95°N, 71.65°W
Report Text: KSFZ 211715Z 01007KT 2 1/2SM OVC008 M01/M04 A3026 RMK AO1
Loading
Personal Weather Stations






























Interactive Weather Map New forecast layout! Learn more

10-Day Weather Forecast

Advertisements
Track Severe Weather on mobile